createdAt,value
2023-09-29T00:01:06.987Z,0
2023-09-29T00:03:33.097Z,0
2023-09-29T00:05:59.183Z,0
2023-09-29T00:08:25.285Z,0
2023-09-29T00:10:51.372Z,0
2023-09-29T00:13:17.471Z,0
2023-09-29T00:15:43.553Z,0
2023-09-29T00:18:09.662Z,0
2023-09-29T00:20:34.761Z,0
2023-09-29T00:23:00.857Z,0
2023-09-29T00:25:26.957Z,0
2023-09-29T00:27:53.054Z,0
2023-09-29T00:30:19.148Z,0
2023-09-29T00:32:45.247Z,0
2023-09-29T00:35:11.334Z,0
2023-09-29T00:37:37.556Z,0
2023-09-29T00:40:03.521Z,0
2023-09-29T00:42:29.621Z,0
2023-09-29T00:44:55.715Z,0
2023-09-29T00:47:21.812Z,0
2023-09-29T00:49:47.913Z,0
2023-09-29T00:52:13.032Z,0
2023-09-29T00:54:39.131Z,0
2023-09-29T00:57:05.223Z,0
2023-09-29T00:59:31.306Z,0
2023-09-29T01:01:57.396Z,0
2023-09-29T01:04:23.495Z,0
2023-09-29T01:06:49.604Z,0
2023-09-29T01:09:15.680Z,0
2023-09-29T01:11:41.798Z,0
2023-09-29T01:14:07.888Z,0
2023-09-29T01:16:33.988Z,0
2023-09-29T01:19:00.084Z,0
2023-09-29T01:21:26.261Z,0
2023-09-29T01:23:51.283Z,0
2023-09-29T01:26:17.378Z,0
2023-09-29T01:28:43.489Z,0
2023-09-29T01:31:09.569Z,0
2023-09-29T01:33:35.663Z,0
2023-09-29T01:36:01.761Z,0
2023-09-29T01:38:27.831Z,0
2023-09-29T01:40:54.005Z,0
2023-09-29T01:43:20.061Z,0
2023-09-29T01:45:46.143Z,0
2023-09-29T01:48:12.226Z,0
2023-09-29T01:50:38.324Z,0
2023-09-29T01:53:04.497Z,0
2023-09-29T01:55:29.543Z,0
2023-09-29T01:57:55.637Z,0
2023-09-29T02:00:21.713Z,0
2023-09-29T02:02:47.818Z,0
2023-09-29T02:05:13.918Z,0
2023-09-29T02:07:40.001Z,0
2023-09-29T02:10:06.093Z,0
2023-09-29T02:12:32.336Z,0
2023-09-29T02:14:58.415Z,0
2023-09-29T02:17:24.559Z,0
2023-09-29T02:19:50.486Z,0
2023-09-29T02:22:16.565Z,0
2023-09-29T02:24:42.670Z,0
2023-09-29T02:27:07.787Z,0
2023-09-29T02:29:33.892Z,0
2023-09-29T02:31:59.963Z,0
2023-09-29T02:34:26.056Z,0
2023-09-29T02:36:52.136Z,0
2023-09-29T02:39:18.234Z,0
2023-09-29T02:41:44.351Z,0
2023-09-29T02:44:10.445Z,0
2023-09-29T02:46:36.518Z,0
2023-09-29T02:49:02.614Z,0
2023-09-29T02:51:28.715Z,0
2023-09-29T02:53:54.800Z,0
2023-09-29T02:56:21.027Z,0
2023-09-29T02:58:46.069Z,0
2023-09-29T03:01:12.122Z,0
2023-09-29T03:03:38.192Z,0
2023-09-29T03:06:04.307Z,0
2023-09-29T03:08:30.386Z,0
2023-09-29T03:10:56.480Z,0
2023-09-29T03:13:22.589Z,0
2023-09-29T03:15:48.678Z,0
2023-09-29T03:18:14.767Z,0
2023-09-29T03:20:40.870Z,0
2023-09-29T03:23:06.964Z,0
2023-09-29T03:25:33.063Z,0
2023-09-29T03:27:59.151Z,0
2023-09-29T03:30:24.263Z,0
2023-09-29T03:32:50.363Z,0
2023-09-29T03:35:16.454Z,0
2023-09-29T03:37:42.532Z,0
2023-09-29T03:40:08.640Z,0
2023-09-29T03:42:34.746Z,0
2023-09-29T03:45:00.829Z,0
2023-09-29T03:47:26.918Z,0
2023-09-29T03:49:53.009Z,0
2023-09-29T03:52:19.120Z,0
2023-09-29T03:54:45.209Z,0
2023-09-29T03:57:11.297Z,0
2023-09-29T03:59:37.389Z,0
2023-09-29T04:02:02.528Z,0
2023-09-29T04:04:28.604Z,0
2023-09-29T04:06:54.713Z,0
2023-09-29T04:09:20.809Z,0
2023-09-29T04:11:46.882Z,0
2023-09-29T04:14:12.976Z,0
2023-09-29T04:16:39.082Z,0
2023-09-29T04:19:05.186Z,0
2023-09-29T04:21:31.264Z,0
2023-09-29T04:23:57.362Z,0
2023-09-29T04:26:23.467Z,0
2023-09-29T04:28:49.543Z,0
2023-09-29T04:31:15.648Z,0
2023-09-29T04:33:40.763Z,0
2023-09-29T04:36:06.867Z,0
2023-09-29T04:38:32.950Z,0
2023-09-29T04:40:59.054Z,0
2023-09-29T04:43:25.145Z,0
2023-09-29T04:45:51.228Z,0
2023-09-29T04:48:17.332Z,0
2023-09-29T04:50:43.461Z,0
2023-09-29T04:53:09.532Z,4
2023-09-29T04:55:35.610Z,8
2023-09-29T04:58:01.712Z,12
2023-09-29T05:00:27.799Z,16
2023-09-29T05:02:53.905Z,28
2023-09-29T05:05:19.021Z,44
2023-09-29T05:07:45.171Z,60
2023-09-29T05:10:11.201Z,88
2023-09-29T05:12:37.311Z,120
2023-09-29T05:15:03.401Z,160
2023-09-29T05:17:29.476Z,200
2023-09-29T05:19:55.576Z,240
2023-09-29T05:22:21.683Z,289
2023-09-29T05:24:47.769Z,345
2023-09-29T05:27:13.863Z,461
2023-09-29T05:29:39.965Z,570
2023-09-29T05:32:06.047Z,654
2023-09-29T05:34:32.160Z,758
2023-09-29T05:36:57.268Z,867
2023-09-29T05:39:23.368Z,979
2023-09-29T05:41:49.463Z,1076
2023-09-29T05:44:15.549Z,1204
2023-09-29T05:46:41.649Z,1341
2023-09-29T05:49:07.746Z,1497
2023-09-29T05:51:32.852Z,1646
2023-09-29T05:53:58.953Z,1790
2023-09-29T05:56:25.174Z,1931
2023-09-29T05:58:51.338Z,2056
2023-09-29T06:01:17.392Z,2268
2023-09-29T06:03:43.372Z,2337
2023-09-29T06:06:09.638Z,2489
2023-09-29T06:08:35.858Z,2493
2023-09-29T06:11:01.677Z,2694
2023-09-29T06:13:27.925Z,2879
2023-09-29T06:15:53.792Z,3067
2023-09-29T06:18:20.227Z,3240
2023-09-29T06:20:46.236Z,3501
2023-09-29T06:23:11.425Z,3919
2023-09-29T06:25:37.523Z,4252
2023-09-29T06:28:03.494Z,4457
2023-09-29T06:30:29.588Z,4718
2023-09-29T06:32:55.568Z,4626
2023-09-29T06:35:21.701Z,4521
2023-09-29T06:37:47.988Z,4152
2023-09-29T06:40:14.163Z,3822
2023-09-29T06:42:40.195Z,3622
2023-09-29T06:45:06.122Z,3746
2023-09-29T06:47:32.059Z,4100
2023-09-29T06:49:58.474Z,4646
2023-09-29T06:52:24.503Z,5011
2023-09-29T06:54:49.368Z,4549
2023-09-29T06:57:15.691Z,4340
2023-09-29T06:59:41.901Z,4674
2023-09-29T07:02:07.768Z,5160
2023-09-29T07:04:34.083Z,5638
2023-09-29T07:07:00.124Z,5654
2023-09-29T07:09:26.182Z,5834
2023-09-29T07:11:52.365Z,6437
2023-09-29T07:14:18.436Z,6882
2023-09-29T07:16:44.657Z,6754
2023-09-29T07:19:10.607Z,6577
2023-09-29T07:21:36.598Z,7023
2023-09-29T07:24:02.595Z,7184
2023-09-29T07:26:28.040Z,7838
2023-09-29T07:28:53.715Z,8565
2023-09-29T07:31:19.827Z,8175
2023-09-29T07:33:46.049Z,6971
2023-09-29T07:36:12.049Z,6380
2023-09-29T07:38:38.137Z,6553
2023-09-29T07:41:04.279Z,7653
2023-09-29T07:43:30.286Z,9830
2023-09-29T07:45:56.500Z,10958
2023-09-29T07:48:22.467Z,11653
2023-09-29T07:50:48.709Z,12372
2023-09-29T07:53:14.681Z,11332
2023-09-29T07:55:40.789Z,9597
2023-09-29T07:58:05.879Z,8428
2023-09-29T08:00:31.944Z,8035
2023-09-29T08:02:58.053Z,7232
2023-09-29T08:05:24.291Z,6505
2023-09-29T08:07:50.251Z,6722
2023-09-29T08:10:16.332Z,7256
2023-09-29T08:12:42.437Z,7236
2023-09-29T08:15:08.531Z,7107
2023-09-29T08:17:34.629Z,6509
2023-09-29T08:20:00.733Z,6119
2023-09-29T08:22:26.817Z,6135
2023-09-29T08:24:53.035Z,5882
2023-09-29T08:27:19.005Z,5160
2023-09-29T08:29:44.377Z,4461
2023-09-29T08:32:10.207Z,4260
2023-09-29T08:34:36.339Z,4405
2023-09-29T08:37:02.400Z,4389
2023-09-29T08:39:28.807Z,4979
2023-09-29T08:41:54.858Z,5316
2023-09-29T08:44:20.813Z,5336
2023-09-29T08:46:46.767Z,4907
2023-09-29T08:49:13.013Z,5188
2023-09-29T08:51:38.992Z,4850
2023-09-29T08:54:05.060Z,5509
2023-09-29T08:56:31.162Z,5774
2023-09-29T08:58:57.282Z,5063
2023-09-29T09:01:22.510Z,4521
2023-09-29T09:03:48.741Z,4702
2023-09-29T09:06:14.553Z,5497
2023-09-29T09:08:40.846Z,5730
2023-09-29T09:11:07.051Z,4967
2023-09-29T09:13:32.979Z,4332
2023-09-29T09:15:59.152Z,4541
2023-09-29T09:18:25.296Z,4505
2023-09-29T09:20:51.330Z,4031
2023-09-29T09:23:17.417Z,4027
2023-09-29T09:25:43.589Z,3991
2023-09-29T09:28:09.622Z,3843
2023-09-29T09:30:35.589Z,4031
2023-09-29T09:33:00.630Z,4075
2023-09-29T09:35:26.738Z,4136
2023-09-29T09:37:52.910Z,4240
2023-09-29T09:40:18.969Z,4369
2023-09-29T09:42:44.987Z,4505
2023-09-29T09:45:11.080Z,4710
2023-09-29T09:47:37.172Z,5043
2023-09-29T09:50:03.267Z,5449
2023-09-29T09:52:29.377Z,5698
2023-09-29T09:54:55.541Z,5866
2023-09-29T09:57:21.652Z,5919
2023-09-29T09:59:47.665Z,6160
2023-09-29T10:02:13.763Z,6625
2023-09-29T10:04:38.936Z,7429
2023-09-29T10:07:04.952Z,8436
2023-09-29T10:09:31.039Z,9248
2023-09-29T10:11:57.132Z,9577
2023-09-29T10:14:23.237Z,9549
2023-09-29T10:16:49.325Z,9119
2023-09-29T10:19:15.436Z,9312
2023-09-29T10:21:41.562Z,10007
2023-09-29T10:24:07.767Z,10444
2023-09-29T10:26:33.719Z,10015
2023-09-29T10:28:59.811Z,9926
2023-09-29T10:31:25.956Z,11027
2023-09-29T10:33:52.117Z,12460
2023-09-29T10:36:17.089Z,13071
2023-09-29T10:38:43.189Z,13364
2023-09-29T10:41:09.282Z,12613
2023-09-29T10:43:35.519Z,11284
2023-09-29T10:46:01.606Z,10059
2023-09-29T10:48:27.743Z,8846
2023-09-29T10:50:53.779Z,8192
2023-09-29T10:53:19.793Z,7698
2023-09-29T10:55:45.889Z,7573
2023-09-29T10:58:11.942Z,9171
2023-09-29T11:00:38.055Z,9649
2023-09-29T11:03:04.143Z,9609
2023-09-29T11:05:30.237Z,10135
2023-09-29T11:07:55.357Z,9573
2023-09-29T11:10:21.441Z,7983
2023-09-29T11:12:47.528Z,6405
2023-09-29T11:15:13.640Z,6019
2023-09-29T11:17:39.843Z,5650
2023-09-29T11:20:05.887Z,5288
2023-09-29T11:22:31.972Z,5216
2023-09-29T11:24:58.139Z,5204
2023-09-29T11:27:24.096Z,5240
2023-09-29T11:29:50.197Z,5292
2023-09-29T11:32:16.286Z,5340
2023-09-29T11:34:42.376Z,5381
2023-09-29T11:37:08.538Z,5280
2023-09-29T11:39:33.586Z,5368
2023-09-29T11:41:59.676Z,5288
2023-09-29T11:44:25.758Z,5224
2023-09-29T11:46:51.873Z,5204
2023-09-29T11:49:17.981Z,5095
2023-09-29T11:51:44.185Z,5019
2023-09-29T11:54:10.273Z,4939
2023-09-29T11:56:36.280Z,4907
2023-09-29T11:59:02.337Z,4943
2023-09-29T12:01:28.486Z,4891
2023-09-29T12:03:54.542Z,4903
2023-09-29T12:06:20.685Z,4991
2023-09-29T12:08:46.730Z,5015
2023-09-29T12:11:12.007Z,5168
2023-09-29T12:13:37.977Z,5224
2023-09-29T12:16:04.015Z,5312
2023-09-29T12:18:30.109Z,5389
2023-09-29T12:20:56.210Z,5465
2023-09-29T12:23:22.350Z,5553
2023-09-29T12:25:48.403Z,5750
2023-09-29T12:28:14.505Z,5963
2023-09-29T12:30:40.583Z,5971
2023-09-29T12:33:06.694Z,6368
2023-09-29T12:35:32.788Z,6043
2023-09-29T12:37:58.867Z,5662
2023-09-29T12:42:51.058Z,5983
2023-09-29T12:45:16.180Z,6232
2023-09-29T12:47:42.347Z,7240
2023-09-29T12:50:08.387Z,7738
2023-09-29T12:52:34.469Z,8127
2023-09-29T12:55:00.553Z,8569
2023-09-29T12:57:26.649Z,7525
2023-09-29T12:59:52.749Z,7312
2023-09-29T13:02:18.825Z,8075
2023-09-29T13:04:44.937Z,6312
2023-09-29T13:07:11.031Z,5870
2023-09-29T13:09:37.222Z,6035
2023-09-29T13:12:03.210Z,5429
2023-09-29T13:14:29.315Z,6304
2023-09-29T13:16:54.420Z,6722
2023-09-29T13:19:20.501Z,8786
2023-09-29T13:21:46.613Z,9886
2023-09-29T13:24:12.698Z,9665
2023-09-29T13:26:38.788Z,11914
2023-09-29T13:29:04.897Z,14050
2023-09-29T13:31:31.032Z,15958
2023-09-29T13:33:57.331Z,15882
2023-09-29T13:36:23.405Z,14524
2023-09-29T13:38:49.502Z,13757
2023-09-29T13:41:15.479Z,13681
2023-09-29T13:43:41.522Z,10653
2023-09-29T13:46:07.642Z,9079
2023-09-29T13:48:32.871Z,7396
2023-09-29T13:50:58.835Z,7115
2023-09-29T13:53:24.856Z,8360
2023-09-29T13:55:51.146Z,8453
2023-09-29T13:58:17.076Z,10898
2023-09-29T14:00:42.164Z,12717
2023-09-29T14:03:08.263Z,11681
2023-09-29T14:05:34.430Z,9774
2023-09-29T14:08:00.690Z,8661
2023-09-29T14:10:26.637Z,9075
2023-09-29T14:12:52.770Z,11496
2023-09-29T14:15:18.832Z,13392
2023-09-29T14:17:44.902Z,18504
2023-09-29T14:20:10.958Z,24029
2023-09-29T14:22:37.214Z,42309
2023-09-29T14:25:03.141Z,10260
2023-09-29T14:27:29.340Z,8268
2023-09-29T14:29:55.500Z,10641
2023-09-29T14:32:20.605Z,31836
2023-09-29T14:34:46.701Z,14348
2023-09-29T14:37:12.860Z,9533
2023-09-29T14:39:38.852Z,6702
2023-09-29T14:42:04.873Z,5935
2023-09-29T14:44:31.008Z,7790
2023-09-29T14:46:56.978Z,15323
2023-09-29T14:49:23.159Z,8119
2023-09-29T14:51:49.164Z,7649
2023-09-29T14:54:15.256Z,5545
2023-09-29T14:56:41.370Z,4678
2023-09-29T14:59:07.457Z,3377
2023-09-29T15:01:33.560Z,3505
2023-09-29T15:03:58.668Z,3670
2023-09-29T15:06:24.841Z,4276
2023-09-29T15:08:50.912Z,4188
2023-09-29T15:11:16.994Z,3594
2023-09-29T15:13:43.043Z,3975
2023-09-29T15:16:09.129Z,4184
2023-09-29T15:18:35.312Z,4353
2023-09-29T15:21:01.350Z,4461
2023-09-29T15:23:27.542Z,4208
2023-09-29T15:25:53.513Z,4610
2023-09-29T15:28:19.624Z,4204
2023-09-29T15:30:45.760Z,3714
2023-09-29T15:33:11.822Z,3746
2023-09-29T15:35:36.908Z,4252
2023-09-29T15:38:03.077Z,5208
2023-09-29T15:40:29.101Z,6176
2023-09-29T15:42:55.202Z,7256
2023-09-29T15:45:21.371Z,7481
2023-09-29T15:47:47.451Z,7023
2023-09-29T15:50:13.490Z,6449
2023-09-29T15:52:39.570Z,5120
2023-09-29T15:55:05.670Z,3810
2023-09-29T15:57:31.763Z,3425
2023-09-29T15:59:57.862Z,3292
2023-09-29T16:02:23.960Z,3288
2023-09-29T16:04:50.063Z,3067
2023-09-29T16:07:15.251Z,2819
2023-09-29T16:09:41.253Z,2839
2023-09-29T16:12:07.435Z,3124
2023-09-29T16:14:33.469Z,3051
2023-09-29T16:16:59.927Z,3076
2023-09-29T16:19:25.626Z,2931
2023-09-29T16:21:51.725Z,2887
2023-09-29T16:24:17.819Z,2365
2023-09-29T16:26:43.913Z,1766
2023-09-29T16:29:10.003Z,1517
2023-09-29T16:31:36.108Z,1313
2023-09-29T16:34:02.191Z,1112
2023-09-29T16:36:28.281Z,831
2023-09-29T16:38:53.396Z,670
2023-09-29T16:41:19.489Z,586
2023-09-29T16:43:45.589Z,489
2023-09-29T16:46:11.684Z,421
2023-09-29T16:48:37.836Z,369
2023-09-29T16:51:03.878Z,321
2023-09-29T16:53:29.963Z,325
2023-09-29T16:55:56.087Z,285
2023-09-29T16:58:22.187Z,220
2023-09-29T17:00:48.239Z,172
2023-09-29T17:03:14.343Z,160
2023-09-29T17:05:40.483Z,152
2023-09-29T17:10:32.632Z,128
2023-09-29T17:12:57.752Z,88
2023-09-29T17:15:23.848Z,64
2023-09-29T17:17:49.912Z,44
2023-09-29T17:20:16.038Z,32
2023-09-29T17:22:42.123Z,20
2023-09-29T17:25:08.208Z,12
2023-09-29T17:27:34.302Z,8
2023-09-29T17:30:00.509Z,4
2023-09-29T17:32:26.488Z,4
2023-09-29T17:34:52.677Z,4
2023-09-29T17:37:18.705Z,0
2023-09-29T17:39:44.784Z,0
2023-09-29T17:42:10.930Z,0
2023-09-29T17:44:36.307Z,0
2023-09-29T17:47:02.126Z,0
2023-09-29T17:49:28.201Z,0
2023-09-29T17:51:54.391Z,0
2023-09-29T17:54:20.402Z,0
2023-09-29T17:59:12.535Z,0
2023-09-29T18:01:38.634Z,0
2023-09-29T18:04:04.763Z,0
2023-09-29T18:06:30.880Z,0
2023-09-29T18:08:56.922Z,0
2023-09-29T18:11:23.036Z,0
2023-09-29T18:13:50.078Z,0
2023-09-29T18:16:15.208Z,0
2023-09-29T18:18:40.361Z,0
2023-09-29T18:21:06.423Z,0
2023-09-29T18:23:32.523Z,0
2023-09-29T18:25:58.624Z,0
2023-09-29T18:28:24.788Z,0
2023-09-29T18:30:50.804Z,0
2023-09-29T18:33:16.916Z,0
2023-09-29T18:35:43.032Z,0
2023-09-29T18:38:09.122Z,0
2023-09-29T18:40:35.204Z,0
2023-09-29T18:43:01.318Z,0
2023-09-29T18:45:27.457Z,0
2023-09-29T18:47:53.547Z,0
2023-09-29T18:50:18.566Z,0
2023-09-29T18:52:44.788Z,0
2023-09-29T18:57:36.971Z,0
2023-09-29T19:00:03.266Z,0
2023-09-29T19:02:29.030Z,0
2023-09-29T19:04:55.125Z,0
2023-09-29T19:07:21.371Z,0
2023-09-29T19:09:47.341Z,0
2023-09-29T19:12:13.540Z,0
2023-09-29T19:14:39.573Z,0
2023-09-29T19:17:05.643Z,0
2023-09-29T19:19:31.718Z,0
2023-09-29T19:21:56.894Z,0
2023-09-29T19:24:23.115Z,0
2023-09-29T19:26:49.203Z,0
2023-09-29T19:29:15.237Z,0
2023-09-29T19:31:41.214Z,0
2023-09-29T19:34:07.282Z,0
2023-09-29T19:36:33.390Z,0
2023-09-29T19:38:59.482Z,0
2023-09-29T19:41:25.557Z,0
2023-09-29T19:43:51.710Z,0
2023-09-29T19:46:17.787Z,0
2023-09-29T19:48:43.855Z,0
2023-09-29T19:51:09.936Z,0
2023-09-29T19:53:35.102Z,0
2023-09-29T19:56:01.226Z,0
2023-09-29T19:58:27.244Z,0
2023-09-29T20:00:53.427Z,0
2023-09-29T20:03:19.448Z,0
2023-09-29T20:05:45.541Z,0
2023-09-29T20:08:11.631Z,0
2023-09-29T20:10:37.717Z,0
2023-09-29T20:13:03.827Z,0
2023-09-29T20:15:29.981Z,0
2023-09-29T20:17:56.009Z,0
2023-09-29T20:20:22.098Z,0
2023-09-29T20:22:48.208Z,0
2023-09-29T20:25:13.307Z,0
2023-09-29T20:27:39.395Z,0
2023-09-29T20:30:05.510Z,0
2023-09-29T20:32:31.597Z,0
2023-09-29T20:34:57.687Z,0
2023-09-29T20:37:23.795Z,0
2023-09-29T20:39:49.897Z,0
2023-09-29T20:42:15.964Z,0
2023-09-29T20:44:42.080Z,0
2023-09-29T20:47:08.227Z,0
2023-09-29T20:49:34.265Z,0
2023-09-29T20:52:00.402Z,0
2023-09-29T20:54:26.439Z,0
2023-09-29T20:56:51.561Z,0
2023-09-29T20:59:17.660Z,0
2023-09-29T21:01:43.791Z,0
2023-09-29T21:04:09.856Z,0
2023-09-29T21:06:35.940Z,0
2023-09-29T21:09:03.605Z,0
2023-09-29T21:11:28.117Z,0
2023-09-29T21:13:54.235Z,0
2023-09-29T21:16:20.316Z,0
2023-09-29T21:18:46.395Z,0
2023-09-29T21:21:12.497Z,0
2023-09-29T21:23:38.639Z,0
2023-09-29T21:26:04.736Z,0
2023-09-29T21:28:29.893Z,0
2023-09-29T21:30:55.891Z,0
2023-09-29T21:33:21.992Z,0
2023-09-29T21:35:48.071Z,0
2023-09-29T21:38:14.173Z,0
2023-09-29T21:40:40.302Z,0
2023-09-29T21:43:06.416Z,0
2023-09-29T21:45:32.446Z,0
2023-09-29T21:47:58.568Z,0
2023-09-29T21:50:24.656Z,0
2023-09-29T21:52:50.719Z,0
2023-09-29T21:55:16.838Z,0
2023-09-29T21:57:42.928Z,0
2023-09-29T22:00:08.033Z,0
2023-09-29T22:02:34.122Z,0
2023-09-29T22:05:00.229Z,0
2023-09-29T22:07:26.333Z,0
2023-09-29T22:09:51.446Z,0
2023-09-29T22:12:17.520Z,0
2023-09-29T22:14:43.620Z,0
2023-09-29T22:17:09.715Z,0
2023-09-29T22:19:35.819Z,0
2023-09-29T22:22:02.119Z,0
2023-09-29T22:24:28.010Z,0
2023-09-29T22:26:54.178Z,0
2023-09-29T22:29:20.205Z,0
2023-09-29T22:31:46.298Z,0
2023-09-29T22:34:12.382Z,0
2023-09-29T22:36:38.509Z,0
2023-09-29T22:39:04.592Z,0
2023-09-29T22:41:29.702Z,0
2023-09-29T22:43:55.791Z,0
2023-09-29T22:46:21.880Z,0
2023-09-29T22:48:47.981Z,0
2023-09-29T22:51:14.084Z,0
2023-09-29T22:53:40.180Z,0
2023-09-29T22:56:06.276Z,0
2023-09-29T22:58:32.382Z,0
2023-09-29T23:00:58.471Z,0
2023-09-29T23:03:24.558Z,0
2023-09-29T23:05:50.659Z,0
2023-09-29T23:08:16.745Z,0
2023-09-29T23:10:42.844Z,0
2023-09-29T23:13:07.950Z,0
2023-09-29T23:15:34.063Z,0
2023-09-29T23:18:00.222Z,0
2023-09-29T23:20:26.229Z,0
2023-09-29T23:22:52.367Z,0
2023-09-29T23:25:18.417Z,0
2023-09-29T23:27:44.511Z,0
2023-09-29T23:30:10.623Z,0
2023-09-29T23:32:36.703Z,0
2023-09-29T23:35:02.828Z,0
2023-09-29T23:37:28.964Z,0
2023-09-29T23:39:55.121Z,0
2023-09-29T23:42:21.094Z,0
2023-09-29T23:44:46.198Z,0
2023-09-29T23:47:12.292Z,0
2023-09-29T23:49:38.394Z,0
2023-09-29T23:52:04.485Z,0
2023-09-29T23:54:30.597Z,0
2023-09-29T23:59:22.797Z,0
